Time;durP1;ratioP1;P1;durP2;ratioP2;P2;SDS_P1;SDS_P2;PMS_P1;PMS_P2;Temp;Humidity;BMP_temperature;BMP_pressure;BME280_temperature;BME280_humidity;BME280_pressure;Samples;Min_cycle;Max_cycle;Signal;HPM_P1;HPM_P2
2022/11/16 00:01:02;;;;;;;25.02;11.95;;;;;;;12.74;71.01;97830.91;5100349;29;20510;-73
2022/11/16 00:03:55;;;;;;;23.00;12.63;;;;;;;12.71;70.70;97824.13;5103443;29;20130;-73
2022/11/16 00:06:48;;;;;;;27.25;12.55;;;;;;;12.44;71.81;97830.94;5104176;29;20099;-71
2022/11/16 00:09:38;;;;;;;21.17;12.27;;;;;;;12.40;71.73;97840.31;5103692;29;20094;-73
2022/11/16 00:12:28;;;;;;;24.05;12.13;;;;;;;12.34;71.95;97833.88;5103156;29;20429;-73
2022/11/16 00:15:18;;;;;;;25.08;12.60;;;;;;;12.45;71.79;97845.91;5103748;29;20363;-73
2022/11/16 00:18:08;;;;;;;22.95;11.93;;;;;;;12.39;71.87;97828.84;5102785;29;20043;-73
2022/11/16 00:20:58;;;;;;;20.27;10.63;;;;;;;12.39;72.30;97838.66;5100466;29;20517;-72
2022/11/16 00:23:48;;;;;;;25.42;11.95;;;;;;;12.38;71.89;97831.69;5104399;29;20059;-73
2022/11/16 00:26:38;;;;;;;22.75;11.75;;;;;;;12.43;72.10;97838.09;5102683;29;20517;-72
2022/11/16 00:29:28;;;;;;;31.20;13.15;;;;;;;12.36;72.28;97834.53;5101630;29;20491;-73
2022/11/16 00:32:18;;;;;;;25.52;12.32;;;;;;;12.30;72.99;97858.34;5102437;29;20526;-72
2022/11/16 00:35:09;;;;;;;24.95;13.02;;;;;;;12.31;73.15;97852.84;5102181;29;20097;-74
2022/11/16 00:37:59;;;;;;;24.55;12.65;;;;;;;12.42;72.58;97856.91;5103111;29;20054;-73
2022/11/16 00:40:48;;;;;;;22.65;12.48;;;;;;;12.34;73.45;97851.66;5103002;29;20051;-73
2022/11/16 00:43:39;;;;;;;26.02;12.93;;;;;;;12.25;73.42;97844.78;5102842;29;20048;-74
2022/11/16 00:46:29;;;;;;;24.20;12.65;;;;;;;12.36;73.27;97833.72;5103005;29;20062;-73
2022/11/16 00:49:19;;;;;;;26.45;12.15;;;;;;;12.49;73.04;97841.03;5101723;29;20632;-74
2022/11/16 00:52:10;;;;;;;27.13;13.48;;;;;;;12.20;73.58;97816.94;5102075;29;20070;-73
2022/11/16 00:55:00;;;;;;;29.60;13.55;;;;;;;12.16;73.62;97805.00;5099716;29;20110;-74
2022/11/16 00:57:50;;;;;;;23.55;12.32;;;;;;;12.24;73.72;97809.41;5101667;29;20094;-74
2022/11/16 01:00:43;;;;;;;26.35;13.88;;;;;;;12.34;73.47;97823.25;5112014;29;20047;-73
2022/11/16 01:03:34;;;;;;;27.70;14.43;;;;;;;12.37;73.06;97824.72;5100052;29;20190;-74
2022/11/16 01:06:25;;;;;;;27.45;13.40;;;;;;;12.36;73.18;97815.91;5098289;29;20167;-72
2022/11/16 01:09:15;;;;;;;27.45;14.27;;;;;;;12.36;73.11;97823.06;5099640;29;20058;-74
2022/11/16 01:12:07;;;;;;;28.27;12.90;;;;;;;12.33;73.22;97829.56;5098669;29;20134;-73
2022/11/16 01:14:57;;;;;;;23.50;12.45;;;;;;;12.32;73.15;97804.03;5100323;29;20056;-71
2022/11/16 01:17:47;;;;;;;25.67;12.82;;;;;;;12.37;72.88;97806.94;5100901;29;20136;-72
2022/11/16 01:20:39;;;;;;;20.75;11.40;;;;;;;12.40;72.45;97798.59;5114698;29;20052;-72
2022/11/16 01:23:29;;;;;;;22.30;11.75;;;;;;;12.34;72.87;97795.84;5098977;29;20059;-72
2022/11/16 01:26:19;;;;;;;20.50;12.57;;;;;;;12.38;72.25;97787.34;5102220;29;20073;-74
2022/11/16 01:29:10;;;;;;;20.83;11.57;;;;;;;12.38;72.49;97790.00;5101538;29;20195;-72
2022/11/16 01:32:05;;;;;;;20.60;11.27;;;;;;;12.37;72.71;97798.13;5099116;29;20048;-73
2022/11/16 01:34:56;;;;;;;18.63;10.93;;;;;;;12.42;72.44;97809.06;5099368;29;20048;-73
2022/11/16 01:37:50;;;;;;;19.70;10.05;;;;;;;12.42;72.56;97812.53;5100122;29;20048;-74
2022/11/16 01:40:40;;;;;;;19.50;10.45;;;;;;;12.31;72.50;97797.03;5100415;29;20044;-72
2022/11/16 01:43:58;;;;;;;18.88;10.68;;;;;;;12.32;72.33;97790.72;5112778;29;20079;-74
2022/11/16 01:46:53;;;;;;;18.23;10.13;;;;;;;12.43;71.89;97784.09;5109540;29;20175;-71
2022/11/16 01:49:50;;;;;;;18.83;10.35;;;;;;;12.63;70.69;97795.81;5099867;29;20058;-72
2022/11/16 01:52:53;;;;;;;16.15;10.63;;;;;;;12.39;71.39;97767.72;5100867;29;20544;-74
2022/11/16 01:55:47;;;;;;;21.92;11.10;;;;;;;12.20;73.14;97777.06;5113659;29;20062;-72
2022/11/16 01:58:44;;;;;;;21.85;9.90;;;;;;;12.19;73.22;97770.09;5100802;29;20517;-73
2022/11/16 02:01:47;;;;;;;18.85;10.35;;;;;;;11.98;73.35;97770.81;5100654;29;20047;-73
2022/11/16 02:04:38;;;;;;;20.63;11.25;;;;;;;12.06;73.57;97756.63;5099983;29;20581;-72
2022/11/16 02:11:55;;;;;;;19.67;10.32;;;;;;;11.85;74.43;97760.00;5081247;29;20675;-74
2022/11/16 02:14:57;;;;;;;18.00;8.77;;;;;;;11.99;74.06;97766.34;5076403;29;20054;-74
2022/11/16 02:18:02;;;;;;;20.42;9.88;;;;;;;11.97;73.35;97763.03;5097144;29;20494;-73
2022/11/16 02:21:22;;;;;;;18.20;9.80;;;;;;;12.03;73.38;97759.66;5096958;29;20518;-72
2022/11/16 02:24:44;;;;;;;15.27;7.90;;;;;;;11.75;74.50;97754.97;5099253;29;20050;-73
2022/11/16 02:28:03;;;;;;;15.50;8.50;;;;;;;12.04;73.38;97763.13;5093830;29;20051;-72
2022/11/16 02:30:56;;;;;;;15.38;7.30;;;;;;;12.20;72.64;97762.97;5096997;29;20518;-72
2022/11/16 02:33:49;;;;;;;17.00;7.35;;;;;;;12.38;71.09;97765.22;5112503;29;20596;-73
2022/11/16 02:36:40;;;;;;;10.98;6.65;;;;;;;12.28;72.31;97764.69;5099946;29;20055;-73
2022/11/16 02:39:33;;;;;;;13.32;6.28;;;;;;;11.83;74.02;97762.00;5099252;29;20047;-74
2022/11/16 02:42:31;;;;;;;12.85;6.65;;;;;;;11.79;74.32;97754.56;5101593;29;20043;-72
2022/11/16 02:45:26;;;;;;;11.07;7.10;;;;;;;11.58;74.42;97757.94;5100992;29;20055;-72
2022/11/16 02:48:26;;;;;;;12.85;7.30;;;;;;;11.64;74.33;97746.59;5112836;29;20137;-73
2022/11/16 02:51:18;;;;;;;15.35;8.38;;;;;;;11.70;75.19;97775.91;5099623;29;20052;-72
2022/11/16 02:54:13;;;;;;;12.97;7.40;;;;;;;11.96;73.45;97772.03;5098472;29;20047;-73
2022/11/16 02:57:07;;;;;;;13.75;7.85;;;;;;;12.06;73.74;97767.28;5111949;29;20059;-73
2022/11/16 02:59:59;;;;;;;13.38;7.78;;;;;;;12.30;72.61;97768.00;5107139;29;20055;-74
2022/11/16 03:03:03;;;;;;;16.50;8.13;;;;;;;12.20;72.61;97762.97;5096497;29;20533;-73
2022/11/16 03:06:00;;;;;;;13.60;7.53;;;;;;;12.15;72.40;97749.38;5099920;29;20052;-73
2022/11/16 03:08:59;;;;;;;12.70;7.55;;;;;;;12.11;72.92;97762.22;5096644;29;20055;-74
2022/11/16 03:11:58;;;;;;;14.48;7.75;;;;;;;12.18;72.41;97757.81;5109335;29;20048;-73
2022/11/16 03:14:55;;;;;;;15.60;8.23;;;;;;;12.16;72.76;97759.84;5109514;29;20537;-74
2022/11/16 03:17:48;;;;;;;14.10;8.15;;;;;;;12.10;73.78;97760.56;5099589;29;20111;-74
2022/11/16 03:20:43;;;;;;;14.27;7.82;;;;;;;12.01;73.80;97758.19;5099767;29;20044;-72
2022/11/16 03:23:33;;;;;;;13.20;7.68;;;;;;;12.25;72.34;97757.94;5099356;29;20088;-73
2022/11/16 03:26:30;;;;;;;15.35;7.97;;;;;;;12.21;72.32;97746.81;5110480;29;20556;-74
2022/11/16 03:29:40;;;;;;;16.23;7.75;;;;;;;12.13;72.65;97752.25;5101018;29;20055;-72
2022/11/16 03:32:45;;;;;;;14.18;8.35;;;;;;;12.12;73.11;97755.91;5099118;29;20196;-73
2022/11/16 03:35:51;;;;;;;12.82;8.32;;;;;;;12.07;73.33;97752.97;5099506;29;20059;-74
2022/11/16 03:38:46;;;;;;;13.85;8.40;;;;;;;12.02;73.15;97739.44;5112485;28;20150;-71
2022/11/16 03:41:40;;;;;;;13.00;8.27;;;;;;;12.10;73.74;97747.28;5096115;29;20056;-74
2022/11/16 03:44:33;;;;;;;13.25;8.57;;;;;;;12.18;72.90;97743.69;5094421;29;20126;-73
2022/11/16 03:47:23;;;;;;;17.88;8.68;;;;;;;12.14;73.00;97732.63;5114005;28;20059;-74
2022/11/16 03:50:14;;;;;;;13.60;8.95;;;;;;;11.97;73.22;97736.47;5103404;29;20248;-74
2022/11/16 03:53:05;;;;;;;13.57;8.10;;;;;;;12.09;73.24;97724.41;5101168;29;20063;-74
2022/11/16 03:55:56;;;;;;;14.57;8.63;;;;;;;12.13;72.95;97744.28;5114630;29;20140;-72
2022/11/16 03:58:49;;;;;;;14.45;8.90;;;;;;;12.04;73.39;97753.34;5098306;29;20074;-73
2022/11/16 04:01:40;;;;;;;13.10;8.48;;;;;;;12.10;73.53;97773.03;5102415;29;20104;-72
2022/11/16 04:30:07;;;;;;;15.10;8.63;;;;;;;12.12;73.58;97793.13;5115067;29;20124;-74
2022/11/16 04:39:16;;;;;;;19.80;7.75;;;;;;;12.21;73.66;97799.97;5114691;29;20070;-72
2022/11/16 04:42:16;;;;;;;13.27;7.38;;;;;;;12.46;72.81;97789.06;5100113;29;20139;-74
2022/11/16 04:48:18;;;;;;;16.73;9.50;;;;;;;11.91;74.12;97785.03;5115307;28;20059;-73
2022/11/16 04:51:12;;;;;;;16.55;9.55;;;;;;;12.05;74.23;97786.03;5100244;29;20058;-73
2022/11/16 04:54:03;;;;;;;14.23;9.82;;;;;;;12.10;74.15;97795.13;5099842;29;20124;-71
2022/11/16 04:56:53;;;;;;;29.17;10.07;;;;;;;12.05;74.44;97794.81;5099859;29;20055;-74
2022/11/16 04:59:46;;;;;;;17.10;9.68;;;;;;;11.96;73.88;97770.19;5101809;29;20055;-74
2022/11/16 05:02:35;;;;;;;18.60;9.43;;;;;;;12.15;74.06;97774.16;5099509;29;20044;-74
2022/11/16 05:05:25;;;;;;;17.17;9.93;;;;;;;12.35;72.92;97771.75;5101508;29;20063;-74
2022/11/16 05:08:16;;;;;;;14.10;8.30;;;;;;;12.19;73.69;97780.75;5101425;29;20122;-74
2022/11/16 05:11:07;;;;;;;14.02;8.85;;;;;;;12.20;72.95;97778.91;5113695;29;20438;-72
2022/11/16 05:13:58;;;;;;;15.27;8.65;;;;;;;12.19;73.88;97786.06;5100385;29;20518;-74
2022/11/16 05:16:48;;;;;;;17.48;8.98;;;;;;;12.19;73.62;97769.28;5098687;29;20580;-73
2022/11/16 05:22:57;;;;;;;15.90;8.65;;;;;;;12.32;73.23;97777.44;5112472;29;20059;-73
2022/11/16 05:25:54;;;;;;;21.73;8.73;;;;;;;12.15;73.27;97779.47;5097781;29;20529;-73
2022/11/16 05:28:45;;;;;;;13.18;8.63;;;;;;;12.21;73.09;97780.53;5100666;29;20203;-72
2022/11/16 05:31:36;;;;;;;14.27;7.95;;;;;;;12.21;73.61;97791.16;5100588;29;20414;-72
2022/11/16 05:34:37;;;;;;;15.50;8.10;;;;;;;12.27;73.68;97793.09;5111957;29;20066;-73
2022/11/16 05:37:29;;;;;;;12.35;7.90;;;;;;;12.26;73.44;97793.28;5100420;29;20581;-74
2022/11/16 05:40:20;;;;;;;12.45;8.43;;;;;;;12.03;73.70;97770.28;5100833;29;20118;-75
2022/11/16 05:43:16;;;;;;;14.52;8.38;;;;;;;12.25;73.47;97796.94;5100317;29;20077;-71
2022/11/16 05:46:16;;;;;;;13.25;8.85;;;;;;;12.16;74.02;97805.00;5102865;29;20053;-74
2022/11/16 05:49:08;;;;;;;17.30;10.05;;;;;;;12.22;73.89;97800.81;5099685;29;20066;-72
2022/11/16 05:51:59;;;;;;;15.02;9.13;;;;;;;12.20;73.55;97806.28;5104821;29;20040;-72
2022/11/16 05:54:50;;;;;;;16.27;9.43;;;;;;;12.16;73.34;97804.19;5115045;29;20156;-70
2022/11/16 05:57:40;;;;;;;15.18;9.85;;;;;;;12.23;73.30;97800.63;5099452;29;20059;-69
2022/11/16 06:00:31;;;;;;;17.80;10.40;;;;;;;12.12;73.76;97793.13;5120497;29;20082;-68
2022/11/16 06:03:38;;;;;;;20.25;9.43;;;;;;;11.98;73.23;97777.97;5104408;29;20048;-72
2022/11/16 06:06:28;;;;;;;19.80;10.48;;;;;;;12.12;73.97;97803.75;5112051;29;20058;-72
2022/11/16 06:09:19;;;;;;;18.27;10.20;;;;;;;12.11;73.47;97802.06;5115823;28;20115;-76
2022/11/16 06:12:12;;;;;;;15.05;8.85;;;;;;;11.94;72.66;97795.28;5100435;29;20084;-72
2022/11/16 06:15:04;;;;;;;19.55;9.27;;;;;;;11.73;72.75;97782.69;5099857;29;20055;-73
2022/11/16 06:17:56;;;;;;;16.10;9.20;;;;;;;11.74;73.43;97787.81;5099817;29;20227;-74
2022/11/16 06:20:47;;;;;;;16.20;9.50;;;;;;;11.72;73.58;97789.84;5108976;29;20058;-72
2022/11/16 06:23:39;;;;;;;20.20;9.40;;;;;;;11.62;73.33;97770.69;5095251;29;20137;-71
2022/11/16 06:26:30;;;;;;;18.15;8.43;;;;;;;11.64;73.12;97797.88;5108658;28;20281;-71
2022/11/16 06:29:21;;;;;;;16.58;8.73;;;;;;;11.69;73.11;97814.09;5081828;29;20059;-72
2022/11/16 06:32:13;;;;;;;14.77;8.65;;;;;;;11.56;72.62;97818.38;5091168;29;20063;-73
2022/11/16 06:35:03;;;;;;;21.10;9.85;;;;;;;11.53;73.01;97822.19;5096627;29;20059;-72
2022/11/16 06:37:54;;;;;;;18.50;11.32;;;;;;;11.48;73.48;97812.09;5096117;29;20769;-74
2022/11/16 06:40:50;;;;;;;24.35;11.45;;;;;;;11.66;73.91;97832.22;5099622;29;20055;-75
2022/11/16 06:43:41;;;;;;;19.48;10.55;;;;;;;11.65;73.63;97833.19;5099668;29;20059;-71
2022/11/16 06:46:32;;;;;;;20.95;10.98;;;;;;;11.64;73.96;97845.66;5109100;29;20055;-74
2022/11/16 06:49:23;;;;;;;19.92;11.32;;;;;;;11.55;74.61;97829.97;5111411;29;20050;-74
2022/11/16 06:52:14;;;;;;;24.20;11.07;;;;;;;11.68;73.90;97849.59;5099957;29;20140;-74
2022/11/16 06:55:05;;;;;;;21.83;11.05;;;;;;;11.72;73.84;97850.91;5095752;29;20062;-73
2022/11/16 06:57:57;;;;;;;19.60;10.48;;;;;;;11.70;73.74;97854.75;5097405;29;20202;-73
2022/11/16 07:00:48;;;;;;;21.98;10.52;;;;;;;11.69;74.12;97850.44;5094157;29;20529;-73
2022/11/16 07:03:38;;;;;;;21.00;10.75;;;;;;;11.70;73.94;97839.63;5100656;29;20087;-73
2022/11/16 07:06:30;;;;;;;21.05;10.80;;;;;;;11.87;74.09;97866.09;5097381;29;20056;-73
2022/11/16 07:09:21;;;;;;;21.05;10.35;;;;;;;11.86;73.81;97865.25;5100261;29;20064;-73
2022/11/16 07:12:11;;;;;;;22.52;10.98;;;;;;;11.90;74.25;97877.16;5097164;29;20713;-73
2022/11/16 07:15:03;;;;;;;20.80;12.05;;;;;;;11.98;73.53;97877.09;5097718;29;20051;-72
2022/11/16 07:17:56;;;;;;;24.40;12.02;;;;;;;11.84;74.17;97875.22;5109458;29;20130;-71
2022/11/16 07:20:46;;;;;;;21.73;11.57;;;;;;;11.93;74.10;97882.13;5113699;29;20047;-72
2022/11/16 07:23:36;;;;;;;17.52;10.75;;;;;;;11.94;74.19;97880.28;5114718;29;20096;-72
2022/11/16 07:26:30;;;;;;;20.88;12.05;;;;;;;11.88;73.85;97881.81;5112444;29;20511;-72
2022/11/16 07:29:24;;;;;;;25.30;12.32;;;;;;;11.92;73.82;97892.91;5103503;29;20145;-72
2022/11/16 07:32:47;;;;;;;20.17;11.25;;;;;;;11.95;73.94;97892.56;5094343;29;20058;-72
2022/11/16 07:35:44;;;;;;;26.23;11.60;;;;;;;11.90;73.44;97881.66;5103621;29;20545;-72
2022/11/16 07:38:35;;;;;;;19.25;11.13;;;;;;;12.04;73.31;97895.97;5101681;29;20615;-72
2022/11/16 07:41:25;;;;;;;19.85;10.95;;;;;;;12.02;73.48;97900.63;5103877;29;20183;-72
2022/11/16 07:44:29;;;;;;;19.10;11.23;;;;;;;12.04;73.32;97895.97;5116618;29;20224;-72
2022/11/16 07:47:37;;;;;;;24.17;11.25;;;;;;;12.22;73.40;97907.13;5104040;29;20284;-72
2022/11/16 07:50:29;;;;;;;26.80;12.60;;;;;;;12.18;73.66;97882.72;5102480;29;20064;-72
2022/11/16 07:53:20;;;;;;;70.32;26.10;;;;;;;12.16;73.49;97881.25;5103083;29;20044;-72
2022/11/16 07:56:11;;;;;;;47.38;19.17;;;;;;;12.36;74.05;97898.31;5101029;29;20051;-73
2022/11/16 07:59:04;;;;;;;30.23;12.35;;;;;;;12.61;73.50;97901.53;5098741;29;20052;-72
2022/11/16 08:01:58;;;;;;;31.92;13.82;;;;;;;12.64;73.25;97882.56;5100457;29;20183;-74
2022/11/16 08:04:49;;;;;;;21.75;11.00;;;;;;;12.98;73.18;97896.28;5112334;29;20058;-72
2022/11/16 08:07:44;;;;;;;11.68;5.20;;;;;;;13.07;73.26;97911.97;5101847;29;20126;-72
2022/11/16 08:10:35;;;;;;;11.00;6.07;;;;;;;13.11;72.83;97901.75;5101491;29;20051;-73
2022/11/16 08:13:26;;;;;;;10.30;5.88;;;;;;;13.18;73.25;97910.69;5086878;29;20058;-73
2022/11/16 08:16:18;;;;;;;12.95;5.75;;;;;;;13.22;73.02;97911.13;5103767;29;20422;-71
2022/11/16 08:19:12;;;;;;;7.90;5.18;;;;;;;13.28;73.09;97913.06;5100895;29;20092;-72
2022/11/16 08:22:02;;;;;;;10.18;4.88;;;;;;;13.31;72.89;97918.00;5101234;29;20047;-70
2022/11/16 08:24:55;;;;;;;6.87;4.50;;;;;;;13.42;72.33;97917.53;5113092;29;21358;-70
2022/11/16 08:27:47;;;;;;;6.80;4.20;;;;;;;13.43;72.43;97889.88;5102561;29;20047;-73
2022/11/16 08:30:39;;;;;;;7.47;4.20;;;;;;;13.52;71.80;97896.75;5102616;29;20499;-71
2022/11/16 08:33:30;;;;;;;6.38;4.30;;;;;;;13.67;71.48;97909.16;5115226;29;20078;-72
2022/11/16 08:36:21;;;;;;;5.68;3.80;;;;;;;13.61;71.29;97905.44;5102122;29;20062;-72
2022/11/16 08:39:11;;;;;;;5.25;3.03;;;;;;;13.70;71.24;97919.44;5114206;28;20083;-71
2022/11/16 08:42:02;;;;;;;9.27;4.13;;;;;;;13.77;70.78;97915.81;5098176;29;20515;-72
2022/11/16 08:44:52;;;;;;;6.78;3.63;;;;;;;13.79;70.83;97919.13;5089393;29;20088;-71
2022/11/16 08:47:43;;;;;;;4.65;2.97;;;;;;;13.90;69.07;97909.78;5115155;29;20130;-71
2022/11/16 08:50:33;;;;;;;8.98;4.40;;;;;;;14.27;70.27;97915.81;5097539;29;20055;-71
2022/11/16 08:53:44;;;;;;;12.57;6.53;;;;;;;14.28;70.20;97922.84;5115237;29;20139;-71
2022/11/16 08:56:34;;;;;;;9.80;5.90;;;;;;;14.34;69.73;97927.41;5100268;29;20055;-71
2022/11/16 08:59:26;;;;;;;10.57;5.40;;;;;;;14.28;70.35;97931.66;5098813;29;20052;-71
2022/11/16 09:02:24;;;;;;;15.00;7.00;;;;;;;14.20;69.54;97904.28;5101781;29;20043;-71
2022/11/16 09:05:15;;;;;;;23.98;6.15;;;;;;;14.43;69.05;97933.38;5102154;29;20648;-71
2022/11/16 09:08:05;;;;;;;10.15;5.22;;;;;;;14.27;68.09;97926.50;5099858;29;20870;-71
2022/11/16 09:10:54;;;;;;;9.98;4.70;;;;;;;14.36;69.49;97921.84;5102472;29;20051;-71
2022/11/16 09:13:46;;;;;;;8.52;4.60;;;;;;;14.39;69.02;97940.13;5097235;29;20102;-70
2022/11/16 09:16:36;;;;;;;8.70;3.40;;;;;;;14.09;68.28;97938.47;5101767;29;20082;-72
2022/11/16 09:19:26;;;;;;;6.72;2.97;;;;;;;14.11;68.33;97943.63;5097557;29;20123;-74
2022/11/16 09:22:16;;;;;;;7.88;3.30;;;;;;;14.26;68.25;97944.34;5098412;29;20166;-74
2022/11/16 09:25:08;;;;;;;6.60;4.25;;;;;;;14.39;68.85;97945.47;5100543;29;20191;-74
2022/11/16 09:27:58;;;;;;;7.63;4.05;;;;;;;14.46;69.05;97930.34;5098167;29;20086;-74
2022/11/16 09:30:50;;;;;;;5.85;3.10;;;;;;;14.40;68.57;97934.59;5097550;29;20056;-75
2022/11/16 09:33:40;;;;;;;5.38;2.70;;;;;;;14.32;68.97;97927.56;5101926;29;20494;-74
2022/11/16 09:36:30;;;;;;;5.43;2.55;;;;;;;14.10;68.19;97917.97;5097450;29;20078;-74
2022/11/16 09:39:20;;;;;;;5.88;2.40;;;;;;;14.05;67.33;97923.06;5101227;29;20055;-74
2022/11/16 09:42:51;;;;;;;5.90;2.20;;;;;;;13.99;67.49;97929.97;5099737;29;20421;-74
2022/11/16 09:46:13;;;;;;;4.30;2.33;;;;;;;14.12;68.07;97933.78;5096536;29;20062;-73
2022/11/16 09:49:11;;;;;;;5.22;1.80;;;;;;;13.96;67.04;97916.19;5097029;29;20521;-73
2022/11/16 09:52:25;;;;;;;6.88;2.17;;;;;;;13.98;67.45;97932.84;5095917;29;20073;-73
2022/11/16 09:55:34;;;;;;;5.20;2.10;;;;;;;14.13;66.81;97938.06;5100843;29;20503;-73
2022/11/16 09:58:37;;;;;;;4.38;2.38;;;;;;;13.95;67.61;97925.22;5109288;29;20070;-73
2022/11/16 10:01:50;;;;;;;9.40;2.20;;;;;;;13.80;68.21;97911.94;5099329;29;20050;-73
2022/11/16 10:05:06;;;;;;;8.30;2.42;;;;;;;14.12;66.64;97944.44;5101198;29;20056;-74
2022/11/16 10:08:20;;;;;;;6.82;2.22;;;;;;;14.33;66.72;97944.38;5094404;29;20104;-73
2022/11/16 10:11:35;;;;;;;5.18;2.22;;;;;;;14.12;66.91;97945.25;5099586;29;20055;-74
2022/11/16 10:14:34;;;;;;;4.82;2.13;;;;;;;14.31;67.18;97938.44;5111584;29;20055;-75
2022/11/16 10:17:42;;;;;;;4.82;2.03;;;;;;;14.34;67.44;97919.41;5101137;29;20119;-74
2022/11/16 10:20:54;;;;;;;5.45;2.25;;;;;;;14.40;66.61;97923.94;5100942;29;20059;-74
2022/11/16 10:23:56;;;;;;;4.32;2.20;;;;;;;14.58;65.79;97934.16;5100136;29;20054;-74
2022/11/16 10:27:19;;;;;;;8.48;1.83;;;;;;;14.67;64.90;97924.97;5100897;29;20192;-75
2022/11/16 10:30:17;;;;;;;16.65;2.45;;;;;;;14.59;65.44;97913.63;5099339;29;20052;-74
2022/11/16 10:33:15;;;;;;;3.42;1.88;;;;;;;14.53;66.71;97915.22;5098981;29;20099;-75
2022/11/16 10:36:13;;;;;;;10.65;2.17;;;;;;;14.48;67.28;97915.78;5098946;29;20059;-72
2022/11/16 10:39:11;;;;;;;3.85;1.80;;;;;;;14.18;67.70;97904.50;5097165;29;20402;-72
2022/11/16 10:42:08;;;;;;;4.18;2.17;;;;;;;14.46;66.40;97909.81;5097149;29;20132;-72
2022/11/16 10:45:11;;;;;;;4.25;1.90;;;;;;;14.36;66.82;97913.84;5097523;29;20135;-72
2022/11/16 10:48:20;;;;;;;5.25;1.52;;;;;;;14.28;65.82;97906.84;5098597;29;20052;-72
2022/11/16 10:51:10;;;;;;;6.78;1.52;;;;;;;14.30;66.87;97900.28;5099104;29;20126;-72
2022/11/16 10:54:02;;;;;;;7.10;2.00;;;;;;;14.28;67.25;97898.84;5098151;29;20123;-72
2022/11/16 10:57:03;;;;;;;4.43;2.08;;;;;;;14.37;67.73;97904.81;5111746;28;20179;-72
2022/11/16 10:59:54;;;;;;;6.38;1.83;;;;;;;14.41;67.28;97890.94;5103965;29;20063;-72
2022/11/16 11:02:47;;;;;;;4.90;2.15;;;;;;;14.90;64.90;97902.50;5109703;29;20787;-71
2022/11/16 11:05:47;;;;;;;4.72;1.70;;;;;;;14.92;64.69;97889.78;5103935;29;20057;-69
2022/11/16 11:08:37;;;;;;;6.15;2.08;;;;;;;14.88;65.63;97881.38;5102862;29;20063;-73
2022/11/16 11:14:36;;;;;;;5.97;1.63;;;;;;;15.03;64.47;97890.06;5104047;29;20047;-72
2022/11/16 11:17:28;;;;;;;4.22;1.60;;;;;;;15.14;64.44;97877.97;5103865;29;20095;-72
2022/11/16 11:20:23;;;;;;;4.53;1.52;;;;;;;15.22;64.61;97888.47;5105602;29;20056;-73
2022/11/16 11:23:22;;;;;;;7.43;1.40;;;;;;;15.13;63.96;97883.50;5116042;29;20060;-72
2022/11/16 11:26:30;;;;;;;4.82;1.52;;;;;;;15.11;65.18;97883.72;5107520;29;20055;-72
2022/11/16 11:29:31;;;;;;;6.97;1.50;;;;;;;14.85;63.71;97873.75;5116195;28;20059;-73
2022/11/16 11:32:25;;;;;;;6.25;1.20;;;;;;;14.88;63.98;97878.69;5118943;29;20054;-70
2022/11/16 11:35:28;;;;;;;4.70;1.10;;;;;;;14.78;64.19;97876.38;5103637;29;20111;-75
2022/11/16 11:38:19;;;;;;;4.65;2.25;;;;;;;14.86;63.79;97877.25;5106414;29;20526;-75
2022/11/16 11:41:17;;;;;;;6.85;2.53;;;;;;;14.94;64.04;97877.91;5106570;29;20059;-74
2022/11/16 11:44:15;;;;;;;6.07;1.25;;;;;;;14.90;63.71;97879.34;5118154;29;20115;-74
2022/11/16 11:47:37;;;;;;;5.45;1.92;;;;;;;14.73;63.02;97859.31;5099860;29;20066;-74
2022/11/16 11:50:56;;;;;;;4.97;1.20;;;;;;;14.80;65.06;97874.34;5100923;29;20048;-73
2022/11/16 11:53:55;;;;;;;7.28;1.40;;;;;;;14.75;65.02;97870.63;5117251;29;20074;-76
2022/11/16 11:56:45;;;;;;;4.10;1.23;;;;;;;14.62;65.34;97854.56;5106171;29;20447;-76
2022/11/16 11:59:35;;;;;;;5.65;2.00;;;;;;;14.69;65.28;97872.22;5118689;28;20167;-76
2022/11/16 12:02:49;;;;;;;3.90;1.17;;;;;;;14.60;65.97;97856.59;5116172;29;20054;-74
2022/11/16 12:06:05;;;;;;;6.47;1.20;;;;;;;14.54;65.63;97864.38;5119141;29;20059;-72
2022/11/16 12:09:14;;;;;;;3.83;1.02;;;;;;;14.53;65.74;97865.38;5102204;29;20378;-73
2022/11/16 12:12:15;;;;;;;3.80;1.02;;;;;;;14.56;65.85;97867.63;5114239;29;20558;-74
2022/11/16 12:15:31;;;;;;;5.90;1.10;;;;;;;14.60;66.40;97856.59;5103566;29;20074;-75
2022/11/16 12:18:54;;;;;;;3.42;0.98;;;;;;;14.71;65.75;97850.69;5102224;29;20054;-74
2022/11/16 12:22:17;;;;;;;4.68;0.98;;;;;;;14.69;66.18;97852.72;5103492;29;20084;-73
2022/11/16 12:25:10;;;;;;;5.30;1.05;;;;;;;14.65;66.08;97854.16;5103848;29;20549;-74
2022/11/16 12:28:16;;;;;;;2.60;1.08;;;;;;;14.68;66.42;97853.78;5100440;29;20092;-74
2022/11/16 12:31:37;;;;;;;2.03;1.13;;;;;;;14.63;66.28;97849.00;5113992;29;20055;-74
2022/11/16 12:34:55;;;;;;;2.33;1.13;;;;;;;14.56;65.17;97803.63;5102175;29;20106;-73
2022/11/16 12:37:54;;;;;;;1.98;1.10;;;;;;;14.87;64.53;97842.38;5116052;29;20063;-73
2022/11/16 12:40:59;;;;;;;6.50;1.10;;;;;;;15.01;62.54;97843.22;5103552;29;20115;-73
2022/11/16 12:43:56;;;;;;;;;;;;;;;14.77;63.68;97840.06;5099611;29;20070;-73
2022/11/16 12:47:21;;;;;;;4.60;1.10;;;;;;;14.73;64.71;97838.78;5102300;29;20021;-72
2022/11/16 12:50:38;;;;;;;7.47;1.23;;;;;;;14.77;65.44;97836.56;5096297;29;20583;-71
2022/11/16 12:53:44;;;;;;;10.70;1.05;;;;;;;14.93;62.96;97830.88;5098903;29;21523;-71
2022/11/16 12:56:50;;;;;;;6.55;1.27;;;;;;;14.90;64.57;97830.44;5095513;29;20059;-72
2022/11/16 13:00:12;;;;;;;2.80;0.93;;;;;;;15.18;63.09;97822.31;5098636;29;20047;-71
2022/11/16 13:03:31;;;;;;;3.28;1.13;;;;;;;15.10;64.87;97825.16;5097196;29;20446;-72
2022/11/16 13:06:41;;;;;;;3.75;0.90;;;;;;;15.10;63.69;97825.16;5098426;29;20067;-71
2022/11/16 13:09:38;;;;;;;2.88;0.88;;;;;;;14.91;64.28;97810.75;5098960;29;20674;-73
2022/11/16 13:12:30;;;;;;;3.70;0.80;;;;;;;15.19;62.67;97807.94;5098712;29;20058;-72
2022/11/16 13:15:32;;;;;;;4.40;1.08;;;;;;;15.02;63.96;97812.84;5100038;29;20159;-73
2022/11/16 13:18:22;;;;;;;5.38;1.10;;;;;;;14.97;63.60;97817.97;5098981;29;20055;-71
2022/11/16 13:21:22;;;;;;;4.35;1.08;;;;;;;15.11;63.92;97816.16;5099757;29;20050;-73
2022/11/16 13:24:43;;;;;;;1.83;0.80;;;;;;;15.05;62.73;97820.44;5097524;29;20058;-74
2022/11/16 13:27:56;;;;;;;2.83;0.80;;;;;;;15.16;60.36;97813.69;5099794;29;20139;-74
2022/11/16 13:30:59;;;;;;;2.85;1.00;;;;;;;14.71;59.62;97794.69;5099212;29;20051;-72
2022/11/16 13:34:00;;;;;;;1.63;0.70;;;;;;;15.03;58.44;97782.44;5098828;29;20130;-74
2022/11/16 13:36:50;;;;;;;1.33;0.65;;;;;;;15.03;59.26;97793.13;5099314;29;20130;-74
2022/11/16 13:39:56;;;;;;;8.52;1.00;;;;;;;15.02;58.96;97800.31;5101517;29;20134;-73
2022/11/16 13:43:16;;;;;;;2.38;0.90;;;;;;;15.14;59.89;97797.06;5099339;29;20051;-73
2022/11/16 13:46:06;;;;;;;4.88;0.88;;;;;;;15.01;61.67;97785.31;5113453;29;20190;-72
2022/11/16 13:48:56;;;;;;;4.18;1.00;;;;;;;15.06;61.56;97791.91;5097898;29;20063;-73
2022/11/16 13:51:59;;;;;;;5.30;1.10;;;;;;;15.13;59.44;97798.06;5097260;29;20142;-74
2022/11/16 13:55:21;;;;;;;6.28;0.82;;;;;;;15.24;60.05;97794.81;5109771;29;20471;-72
2022/11/16 13:58:21;;;;;;;3.75;0.73;;;;;;;14.98;59.22;97764.38;5098450;29;20051;-72
2022/11/16 14:01:15;;;;;;;5.57;1.17;;;;;;;15.32;57.51;97793.81;5108025;29;20069;-73
2022/11/16 14:04:34;;;;;;;3.70;0.88;;;;;;;15.29;57.55;97784.34;5097359;29;20059;-72
2022/11/16 14:07:41;;;;;;;6.40;1.45;;;;;;;15.06;60.62;97791.91;5098181;29;20079;-73
2022/11/16 14:10:32;;;;;;;3.55;0.80;;;;;;;14.98;61.17;97788.38;5098855;29;20062;-73
2022/11/16 14:13:45;;;;;;;2.35;0.70;;;;;;;14.93;61.70;97777.50;5097281;29;20215;-74
2022/11/16 14:16:40;;;;;;;5.57;1.10;;;;;;;14.96;62.20;97781.59;5111648;29;20059;-73
2022/11/16 14:19:43;;;;;;;2.83;0.90;;;;;;;14.82;62.84;97778.06;5097471;29;20051;-74
2022/11/16 14:22:55;;;;;;;4.57;1.08;;;;;;;14.72;62.67;97777.63;5096696;29;20299;-73
2022/11/16 14:26:07;;;;;;;5.50;0.93;;;;;;;14.68;63.27;97769.22;5097606;29;20047;-73
2022/11/16 14:29:49;;;;;;;6.35;1.00;;;;;;;14.50;63.98;97750.22;5093150;29;20048;-72
2022/11/16 14:32:48;;;;;;;5.75;1.27;;;;;;;14.53;63.47;97761.34;5081008;29;20123;-73